Menu Horizontal
luftaufnahme
Willkommen auf der Webseite der privaten Wetterstation -- Taufkirchen an der Pram -- 48°24'29,52" Nord  <>  13°32'13,20" Ost

Wetterdaten - Sonntag, 20.11.2022 - Taufkirchen an der Pram     336 m über NN
Wetterdaten: aktuell Sonntag, 20.11.2022 20:00
Datum Zeit Temp. A. Feuchte A. Luftdruck Regen Wind Sonnenschein UV Solar Windchill Empfang
20.11.2022 20:00 6,1 °C 89 % 1012,0 hPa 0,0 l/m² 0,0 km/h 0 min 0,0 UV-I 0 W/m² 6,1 °C 100 %
20.11.2022 19:50 6,1 °C 89 % 1012,0 hPa 0,0 l/m² 0,0 km/h 0 min 0,0 UV-I 0 W/m² 6,1 °C 100 %
20.11.2022 19:40 6,1 °C 89 % 1012,1 hPa 0,0 l/m² 0,0 km/h 0 min 0,0 UV-I 0 W/m² 6,1 °C 100 %
20.11.2022 19:30 6,2 °C 88 % 1012,1 hPa 0,0 l/m² 0,0 km/h 0 min 0,0 UV-I 0 W/m² 6,2 °C 99 %
20.11.2022 19:20 6,2 °C 88 % 1012,1 hPa 0,0 l/m² 0,0 km/h 0 min 0,0 UV-I 0 W/m² 6,2 °C 100 %
20.11.2022 19:10 6,3 °C 88 % 1012,2 hPa 0,0 l/m² 0,0 km/h 0 min 0,0 UV-I 0 W/m² 6,3 °C 100 %
20.11.2022 19:00 6,4 °C 87 % 1012,1 hPa 0,0 l/m² 0,0 km/h 0 min 0,0 UV-I 0 W/m² 6,4 °C 100 %
20.11.2022 18:50 6,4 °C 87 % 1012,2 hPa 0,0 l/m² 0,0 km/h 0 min 0,0 UV-I 0 W/m² 6,4 °C 100 %
20.11.2022 18:40 6,6 °C 87 % 1012,2 hPa 0,0 l/m² 0,0 km/h 0 min 0,0 UV-I 0 W/m² 6,6 °C 91 %
20.11.2022 18:30 6,6 °C 87 % 1012,1 hPa 0,0 l/m² 0,3 km/h 0 min 0,0 UV-I 0 W/m² 6,6 °C 100 %
20.11.2022 18:20 6,7 °C 86 % 1012,1 hPa 0,0 l/m² 0,9 km/h 0 min 0,0 UV-I 0 W/m² 6,7 °C 100 %
20.11.2022 18:10 6,7 °C 86 % 1012,1 hPa 0,0 l/m² 2,3 km/h 0 min 0,0 UV-I 0 W/m² 6,7 °C 100 %
20.11.2022 18:00 6,7 °C 86 % 1012,1 hPa 0,0 l/m² 0,4 km/h 0 min 0,0 UV-I 0 W/m² 6,7 °C 100 %
20.11.2022 17:50 6,8 °C 85 % 1012,1 hPa 0,0 l/m² 0,2 km/h 0 min 0,0 UV-I 0 W/m² 6,8 °C 100 %
20.11.2022 17:40 6,9 °C 85 % 1012,1 hPa 0,0 l/m² 0,3 km/h 0 min 0,0 UV-I 0 W/m² 6,9 °C 100 %
20.11.2022 17:30 7,0 °C 85 % 1012,1 hPa 0,0 l/m² 0,6 km/h 0 min 0,0 UV-I 0 W/m² 7,0 °C 100 %
20.11.2022 17:20 7,1 °C 84 % 1012,1 hPa 0,0 l/m² 0,5 km/h 0 min 0,0 UV-I 0 W/m² 7,1 °C 91 %
20.11.2022 17:10 7,2 °C 84 % 1012,2 hPa 0,0 l/m² 1,5 km/h 0 min 0,0 UV-I 0 W/m² 7,2 °C 100 %
20.11.2022 17:00 7,2 °C 84 % 1012,1 hPa 0,0 l/m² 3,0 km/h 0 min 0,0 UV-I 0 W/m² 7,2 °C 100 %
20.11.2022 16:50 7,3 °C 84 % 1012,2 hPa 0,0 l/m² 3,3 km/h 0 min 0,0 UV-I 0 W/m² 7,3 °C 100 %
20.11.2022 16:40 7,3 °C 84 % 1012,2 hPa 0,0 l/m² 6,9 km/h 0 min 0,0 UV-I 0 W/m² 6,9 °C 99 %
20.11.2022 16:30 7,1 °C 86 % 1012,2 hPa 0,0 l/m² 4,4 km/h 0 min 0,0 UV-I 0 W/m² 7,1 °C 100 %
20.11.2022 16:20 7,0 °C 87 % 1012,2 hPa 0,0 l/m² 4,7 km/h 0 min 0,0 UV-I 0 W/m² 7,0 °C 100 %
20.11.2022 16:10 7,0 °C 87 % 1012,2 hPa 0,0 l/m² 0,6 km/h 0 min 0,0 UV-I 0 W/m² 7,0 °C 100 %
20.11.2022 16:00 7,1 °C 87 % 1012,2 hPa 0,0 l/m² 2,2 km/h 0 min 0,0 UV-I 0 W/m² 7,1 °C 100 %
20.11.2022 15:50 7,2 °C 86 % 1012,1 hPa 0,0 l/m² 0,0 km/h 0 min 0,0 UV-I 6 W/m² 7,2 °C 100 %
20.11.2022 15:40 7,3 °C 85 % 1012,1 hPa 0,0 l/m² 0,1 km/h 0 min 0,0 UV-I 14 W/m² 7,3 °C 100 %
20.11.2022 15:30 7,3 °C 84 % 1012,2 hPa 0,0 l/m² 0,2 km/h 0 min 0,0 UV-I 11 W/m² 7,3 °C 100 %
20.11.2022 15:20 7,4 °C 84 % 1012,1 hPa 0,0 l/m² 0,0 km/h 0 min 0,0 UV-I 13 W/m² 7,4 °C 100 %
20.11.2022 15:10 7,4 °C 83 % 1012,1 hPa 0,0 l/m² 0,0 km/h 0 min 0,0 UV-I 19 W/m² 7,4 °C 100 %
20.11.2022 15:00 7,4 °C 83 % 1012,1 hPa 0,0 l/m² 0,1 km/h 0 min 0,0 UV-I 28 W/m² 7,4 °C 100 %
20.11.2022 14:50 7,4 °C 83 % 1012,1 hPa 0,0 l/m² 0,4 km/h 0 min 0,0 UV-I 35 W/m² 7,4 °C 100 %
20.11.2022 14:40 7,4 °C 82 % 1012,1 hPa 0,0 l/m² 0,5 km/h 0 min 0,0 UV-I 34 W/m² 7,4 °C 100 %
20.11.2022 14:30 7,4 °C 82 % 1012,2 hPa 0,0 l/m² 1,8 km/h 0 min 0,0 UV-I 32 W/m² 7,4 °C 100 %
20.11.2022 14:20 7,4 °C 83 % 1012,3 hPa 0,0 l/m² 0,7 km/h 0 min 0,0 UV-I 29 W/m² 7,4 °C 99 %
20.11.2022 14:10 7,4 °C 83 % 1012,5 hPa 0,0 l/m² 2,1 km/h 0 min 0,0 UV-I 39 W/m² 7,4 °C 100 %
20.11.2022 14:00 7,4 °C 85 % 1012,5 hPa 0,0 l/m² 1,2 km/h 0 min 0,4 UV-I 68 W/m² 7,4 °C 100 %
20.11.2022 13:50 7,3 °C 86 % 1012,5 hPa 0,0 l/m² 1,2 km/h 0 min 0,6 UV-I 87 W/m² 7,3 °C 100 %
20.11.2022 13:40 7,2 °C 87 % 1012,6 hPa 0,0 l/m² 1,1 km/h 0 min 0,5 UV-I 76 W/m² 7,2 °C 100 %
20.11.2022 13:30 7,1 °C 88 % 1012,7 hPa 0,0 l/m² 0,0 km/h 0 min 0,5 UV-I 67 W/m² 7,1 °C 100 %
20.11.2022 13:20 6,9 °C 89 % 1012,7 hPa 0,0 l/m² 1,0 km/h 0 min 0,3 UV-I 58 W/m² 6,9 °C 100 %
20.11.2022 13:10 6,8 °C 90 % 1012,9 hPa 0,0 l/m² 0,9 km/h 0 min 0,4 UV-I 62 W/m² 6,8 °C 100 %
20.11.2022 13:00 6,7 °C 91 % 1012,9 hPa 0,0 l/m² 1,4 km/h 0 min 0,4 UV-I 59 W/m² 6,7 °C 99 %
20.11.2022 12:50 6,4 °C 93 % 1013,0 hPa 0,0 l/m² 0,3 km/h 0 min 0,5 UV-I 68 W/m² 6,4 °C 100 %
20.11.2022 12:40 6,3 °C 94 % 1013,1 hPa 0,0 l/m² 0,6 km/h 0 min 0,2 UV-I 53 W/m² 6,3 °C 100 %
20.11.2022 12:30 6,2 °C 95 % 1013,2 hPa 0,0 l/m² 0,5 km/h 0 min 0,0 UV-I 35 W/m² 6,2 °C 100 %
20.11.2022 12:20 6,1 °C 95 % 1013,2 hPa 0,0 l/m² 0,4 km/h 0 min 0,0 UV-I 37 W/m² 6,1 °C 100 %
20.11.2022 12:10 5,9 °C 96 % 1013,3 hPa 0,0 l/m² 0,6 km/h 0 min 0,0 UV-I 33 W/m² 5,9 °C 100 %
20.11.2022 12:00 5,9 °C 96 % 1013,3 hPa 0,0 l/m² 0,8 km/h 0 min 0,0 UV-I 37 W/m² 5,9 °C 100 %
20.11.2022 11:50 5,8 °C 97 % 1013,4 hPa 0,0 l/m² 2,4 km/h 0 min 0,0 UV-I 41 W/m² 5,8 °C 100 %
20.11.2022 11:40 5,7 °C 97 % 1013,5 hPa 0,0 l/m² 2,4 km/h 0 min 0,4 UV-I 59 W/m² 5,7 °C 100 %
20.11.2022 11:30 5,7 °C 97 % 1013,6 hPa 0,0 l/m² 2,6 km/h 0 min 0,3 UV-I 57 W/m² 5,7 °C 100 %
20.11.2022 11:20 5,7 °C 97 % 1013,6 hPa 0,0 l/m² 1,1 km/h 0 min 0,6 UV-I 68 W/m² 5,7 °C 100 %
20.11.2022 11:10 5,4 °C 97 % 1013,7 hPa 0,0 l/m² 0,5 km/h 0 min 0,6 UV-I 76 W/m² 5,4 °C 100 %
20.11.2022 11:00 5,1 °C 97 % 1013,9 hPa 0,0 l/m² 0,1 km/h 0 min 0,6 UV-I 88 W/m² 5,1 °C 99 %
20.11.2022 10:50 4,8 °C 97 % 1014,0 hPa 0,0 l/m² 0,0 km/h 0 min 0,4 UV-I 59 W/m² 4,8 °C 99 %
20.11.2022 10:40 4,7 °C 97 % 1014,0 hPa 0,0 l/m² 0,0 km/h 0 min 0,5 UV-I 71 W/m² 4,7 °C 100 %
20.11.2022 10:30 4,4 °C 97 % 1014,1 hPa 0,0 l/m² 0,0 km/h 0 min 0,5 UV-I 79 W/m² 4,4 °C 100 %
20.11.2022 10:20 4,2 °C 97 % 1014,1 hPa 0,0 l/m² 0,0 km/h 10 min 0,6 UV-I 112 W/m² 4,2 °C 100 %
20.11.2022 10:10 3,9 °C 97 % 1014,2 hPa 0,0 l/m² 0,0 km/h 0 min 0,5 UV-I 72 W/m² 3,9 °C 100 %
20.11.2022 10:00 3,8 °C 97 % 1014,2 hPa 0,0 l/m² 0,0 km/h 0 min 0,6 UV-I 92 W/m² 3,8 °C 100 %
20.11.2022 09:50 3,6 °C 97 % 1014,1 hPa 0,0 l/m² 0,0 km/h 0 min 0,6 UV-I 91 W/m² 3,6 °C 100 %
20.11.2022 09:40 3,4 °C 97 % 1014,1 hPa 0,0 l/m² 0,0 km/h 0 min 0,5 UV-I 76 W/m² 3,4 °C 100 %
20.11.2022 09:30 3,3 °C 97 % 1014,1 hPa 0,0 l/m² 0,0 km/h 0 min 0,5 UV-I 65 W/m² 3,3 °C 94 %
20.11.2022 09:20 3,3 °C 97 % 1014,1 hPa 0,0 l/m² 0,0 km/h 0 min 0,0 UV-I 46 W/m² 3,3 °C 100 %
20.11.2022 09:10 3,2 °C 97 % 1014,2 hPa 0,0 l/m² 0,0 km/h 0 min 0,0 UV-I 33 W/m² 3,2 °C 100 %
20.11.2022 09:00 3,1 °C 97 % 1014,3 hPa 0,0 l/m² 0,0 km/h 0 min 0,0 UV-I 27 W/m² 3,1 °C 100 %
20.11.2022 08:50 3,1 °C 96 % 1014,2 hPa 0,0 l/m² 0,0 km/h 0 min 0,0 UV-I 26 W/m² 3,1 °C 100 %
20.11.2022 08:40 3,0 °C 96 % 1014,2 hPa 0,0 l/m² 0,0 km/h 0 min 0,0 UV-I 23 W/m² 3,0 °C 100 %
20.11.2022 08:30 2,9 °C 96 % 1014,2 hPa 0,0 l/m² 0,0 km/h 0 min 0,0 UV-I 20 W/m² 2,9 °C 93 %
20.11.2022 08:20 2,9 °C 97 % 1014,0 hPa 0,0 l/m² 0,0 km/h 0 min 0,0 UV-I 14 W/m² 2,9 °C 100 %
20.11.2022 08:10 2,8 °C 97 % 1014,0 hPa 0,0 l/m² 1,6 km/h 0 min 0,0 UV-I 5 W/m² 2,8 °C 100 %
20.11.2022 08:00 2,7 °C 96 % 1014,0 hPa 0,0 l/m² 0,0 km/h 0 min 0,0 UV-I 2 W/m² 2,7 °C 100 %
20.11.2022 07:50 2,6 °C 96 % 1013,7 hPa 0,0 l/m² 0,0 km/h 0 min 0,0 UV-I 0 W/m² 2,6 °C 100 %
20.11.2022 07:40 2,3 °C 96 % 1013,6 hPa 0,0 l/m² 0,0 km/h 0 min 0,0 UV-I 0 W/m² 2,3 °C 100 %
20.11.2022 07:30 2,3 °C 96 % 1013,6 hPa 0,0 l/m² 0,0 km/h 0 min 0,0 UV-I 0 W/m² 2,3 °C 100 %
20.11.2022 07:20 2,3 °C 96 % 1013,6 hPa 0,0 l/m² 0,0 km/h 0 min 0,0 UV-I 0 W/m² 2,3 °C 100 %
20.11.2022 07:10 2,2 °C 96 % 1013,6 hPa 0,0 l/m² 0,0 km/h 0 min 0,0 UV-I 0 W/m² 2,2 °C 100 %
20.11.2022 07:00 2,2 °C 96 % 1013,5 hPa 0,0 l/m² 0,0 km/h 0 min 0,0 UV-I 0 W/m² 2,2 °C 100 %
20.11.2022 06:50 2,2 °C 96 % 1013,6 hPa 0,0 l/m² 0,0 km/h 0 min 0,0 UV-I 0 W/m² 2,2 °C 100 %
20.11.2022 06:40 2,1 °C 96 % 1013,6 hPa 0,0 l/m² 0,0 km/h 0 min 0,0 UV-I 0 W/m² 2,1 °C 100 %
20.11.2022 06:30 2,1 °C 96 % 1013,5 hPa 0,2 l/m² 0,0 km/h 0 min 0,0 UV-I 0 W/m² 2,1 °C 100 %
20.11.2022 06:20 2,0 °C 96 % 1013,5 hPa 0,4 l/m² 0,0 km/h 0 min 0,0 UV-I 0 W/m² 2,0 °C 100 %
20.11.2022 06:10 1,9 °C 96 % 1013,4 hPa 0,0 l/m² 0,0 km/h 0 min 0,0 UV-I 0 W/m² 1,9 °C 100 %
20.11.2022 06:00 1,9 °C 96 % 1013,4 hPa 0,0 l/m² 0,0 km/h 0 min 0,0 UV-I 0 W/m² 1,9 °C 100 %
20.11.2022 05:50 1,9 °C 96 % 1013,4 hPa 0,2 l/m² 0,0 km/h 0 min 0,0 UV-I 0 W/m² 1,9 °C 100 %
20.11.2022 05:40 1,8 °C 96 % 1013,5 hPa 0,0 l/m² 0,0 km/h 0 min 0,0 UV-I 0 W/m² 1,8 °C 100 %
20.11.2022 05:30 1,8 °C 96 % 1013,6 hPa 0,0 l/m² 0,0 km/h 0 min 0,0 UV-I 0 W/m² 1,8 °C 100 %
20.11.2022 05:20 1,8 °C 96 % 1013,5 hPa 0,2 l/m² 0,0 km/h 0 min 0,0 UV-I 0 W/m² 1,8 °C 100 %
20.11.2022 05:10 1,7 °C 96 % 1013,4 hPa 0,0 l/m² 0,0 km/h 0 min 0,0 UV-I 0 W/m² 1,7 °C 100 %
20.11.2022 05:00 1,6 °C 96 % 1013,5 hPa 0,0 l/m² 0,0 km/h 0 min 0,0 UV-I 0 W/m² 1,6 °C 100 %
20.11.2022 04:50 1,6 °C 96 % 1013,4 hPa 0,2 l/m² 0,0 km/h 0 min 0,0 UV-I 0 W/m² 1,6 °C 93 %
20.11.2022 04:40 1,5 °C 96 % 1013,5 hPa 0,0 l/m² 0,0 km/h 0 min 0,0 UV-I 0 W/m² 1,5 °C 100 %
20.11.2022 04:30 1,5 °C 96 % 1013,3 hPa 0,2 l/m² 0,0 km/h 0 min 0,0 UV-I 0 W/m² 1,5 °C 100 %
20.11.2022 04:20 1,5 °C 96 % 1013,3 hPa 0,0 l/m² 0,0 km/h 0 min 0,0 UV-I 0 W/m² 1,5 °C 100 %
20.11.2022 04:10 1,4 °C 96 % 1013,1 hPa 0,0 l/m² 0,0 km/h 0 min 0,0 UV-I 0 W/m² 1,4 °C 100 %
20.11.2022 04:00 1,4 °C 96 % 1013,2 hPa 0,0 l/m² 0,0 km/h 0 min 0,0 UV-I 0 W/m² 1,4 °C 100 %
20.11.2022 03:50 1,4 °C 96 % 1013,4 hPa 0,2 l/m² 1,6 km/h 0 min 0,0 UV-I 0 W/m² 1,4 °C 100 %
20.11.2022 03:40 1,3 °C 96 % 1013,3 hPa 0,0 l/m² 1,6 km/h 0 min 0,0 UV-I 0 W/m² 1,3 °C 100 %
20.11.2022 03:30 1,3 °C 96 % 1013,4 hPa 0,2 l/m² 0,0 km/h 0 min 0,0 UV-I 0 W/m² 1,3 °C 100 %
20.11.2022 03:20 1,3 °C 96 % 1013,4 hPa 0,2 l/m² 0,0 km/h 0 min 0,0 UV-I 0 W/m² 1,3 °C 100 %
20.11.2022 03:10 1,3 °C 96 % 1013,4 hPa 0,0 l/m² 0,0 km/h 0 min 0,0 UV-I 0 W/m² 1,3 °C 100 %
20.11.2022 03:00 1,3 °C 96 % 1013,3 hPa 0,0 l/m² 1,6 km/h 0 min 0,0 UV-I 0 W/m² 1,3 °C 91 %
20.11.2022 02:50 1,2 °C 95 % 1013,3 hPa 0,0 l/m² 3,2 km/h 0 min 0,0 UV-I 0 W/m² 1,2 °C 100 %
20.11.2022 02:40 1,2 °C 96 % 1013,3 hPa 0,0 l/m² 1,6 km/h 0 min 0,0 UV-I 0 W/m² 1,2 °C 100 %
20.11.2022 02:30 1,2 °C 96 % 1013,3 hPa 0,2 l/m² 3,2 km/h 0 min 0,0 UV-I 0 W/m² 1,2 °C 100 %
20.11.2022 02:20 1,2 °C 96 % 1013,3 hPa 0,0 l/m² 3,2 km/h 0 min 0,0 UV-I 0 W/m² 1,2 °C 100 %
20.11.2022 02:10 1,2 °C 96 % 1013,4 hPa 0,0 l/m² 3,2 km/h 0 min 0,0 UV-I 0 W/m² 1,2 °C 92 %
20.11.2022 02:00 1,2 °C 96 % 1013,3 hPa 0,0 l/m² 1,6 km/h 0 min 0,0 UV-I 0 W/m² 1,2 °C 100 %
20.11.2022 01:50 1,2 °C 96 % 1013,2 hPa 0,0 l/m² 3,2 km/h 0 min 0,0 UV-I 0 W/m² 1,2 °C 100 %
20.11.2022 01:40 1,2 °C 96 % 1013,3 hPa 0,0 l/m² 1,6 km/h 0 min 0,0 UV-I 0 W/m² 1,2 °C 100 %
20.11.2022 01:30 1,2 °C 95 % 1013,3 hPa 0,0 l/m² 0,0 km/h 0 min 0,0 UV-I 0 W/m² 1,2 °C 100 %
20.11.2022 01:20 1,2 °C 95 % 1013,1 hPa 0,0 l/m² 1,6 km/h 0 min 0,0 UV-I 0 W/m² 1,2 °C 100 %
20.11.2022 01:10 1,2 °C 95 % 1013,0 hPa 0,0 l/m² 4,8 km/h 0 min 0,0 UV-I 0 W/m² 1,2 °C 100 %
20.11.2022 01:00 1,2 °C 95 % 1013,1 hPa 0,0 l/m² 3,2 km/h 0 min 0,0 UV-I 0 W/m² 1,2 °C 100 %
20.11.2022 00:50 1,2 °C 95 % 1013,2 hPa 0,0 l/m² 4,8 km/h 0 min 0,0 UV-I 0 W/m² 1,2 °C 100 %
20.11.2022 00:40 1,2 °C 95 % 1013,3 hPa 0,0 l/m² 0,0 km/h 0 min 0,0 UV-I 0 W/m² 1,2 °C 100 %
20.11.2022 00:30 1,2 °C 95 % 1013,4 hPa 0,0 l/m² 0,0 km/h 0 min 0,0 UV-I 0 W/m² 1,2 °C 93 %
20.11.2022 00:20 1,2 °C 95 % 1013,4 hPa 0,2 l/m² 1,6 km/h 0 min 0,0 UV-I 0 W/m² 1,2 °C 100 %
20.11.2022 00:10 1,2 °C 95 % 1013,3 hPa 0,0 l/m² 4,8 km/h 0 min 0,0 UV-I 0 W/m² 1,2 °C 100 %
20.11.2022 00:00 1,2 °C 95 % 1013,3 hPa 0,0 l/m² 3,2 km/h 0 min 0,0 UV-I 0 W/m² 1,2 °C 100 %
19.11.2022 23:50 1,2 °C 95 % 1013,4 hPa 0,0 l/m² 3,2 km/h 0 min 0,0 UV-I 0 W/m² 1,2 °C 100 %
19.11.2022 23:40 1,2 °C 95 % 1013,3 hPa 0,0 l/m² 3,2 km/h 0 min 0,0 UV-I 0 W/m² 1,2 °C 100 %
19.11.2022 23:30 1,2 °C 95 % 1013,4 hPa 0,2 l/m² 3,2 km/h 0 min 0,0 UV-I 0 W/m² 1,2 °C 100 %
19.11.2022 23:20 1,2 °C 95 % 1013,2 hPa 0,0 l/m² 3,2 km/h 0 min 0,0 UV-I 0 W/m² 1,2 °C 100 %
19.11.2022 23:10 1,2 °C 95 % 1013,2 hPa 0,0 l/m² 1,6 km/h 0 min 0,0 UV-I 0 W/m² 1,2 °C 100 %
19.11.2022 23:00 1,2 °C 95 % 1013,1 hPa 0,0 l/m² 3,2 km/h 0 min 0,0 UV-I 0 W/m² 1,2 °C 100 %
19.11.2022 22:50 1,2 °C 95 % 1013,1 hPa 0,0 l/m² 1,6 km/h 0 min 0,0 UV-I 0 W/m² 1,2 °C 100 %
19.11.2022 22:40 1,2 °C 95 % 1013,0 hPa 0,0 l/m² 1,6 km/h 0 min 0,0 UV-I 0 W/m² 1,2 °C 100 %
19.11.2022 22:30 1,2 °C 95 % 1013,0 hPa 0,0 l/m² 0,0 km/h 0 min 0,0 UV-I 0 W/m² 1,2 °C 100 %
19.11.2022 22:20 1,2 °C 95 % 1013,1 hPa 0,0 l/m² 0,0 km/h 0 min 0,0 UV-I 0 W/m² 1,2 °C 100 %
19.11.2022 22:10 1,2 °C 95 % 1013,0 hPa 0,0 l/m² 1,6 km/h 0 min 0,0 UV-I 0 W/m² 1,2 °C 100 %
19.11.2022 22:00 1,2 °C 94 % 1013,1 hPa 0,0 l/m² 0,0 km/h 0 min 0,0 UV-I 0 W/m² 1,2 °C 100 %
19.11.2022 21:50 1,2 °C 94 % 1013,1 hPa 0,0 l/m² 1,6 km/h 0 min 0,0 UV-I 0 W/m² 1,2 °C 100 %
19.11.2022 21:40 1,3 °C 94 % 1013,0 hPa 0,2 l/m² 0,0 km/h 0 min 0,0 UV-I 0 W/m² 1,3 °C 100 %
19.11.2022 21:30 1,3 °C 94 % 1013,2 hPa 0,2 l/m² 1,6 km/h 0 min 0,0 UV-I 0 W/m² 1,3 °C 100 %
19.11.2022 21:20 1,2 °C 94 % 1013,2 hPa 0,0 l/m² 1,6 km/h 0 min 0,0 UV-I 0 W/m² 1,2 °C 100 %
19.11.2022 21:10 1,2 °C 94 % 1013,2 hPa 0,2 l/m² 0,0 km/h 0 min 0,0 UV-I 0 W/m² 1,2 °C 100 %
19.11.2022 21:00 1,2 °C 94 % 1013,2 hPa 0,0 l/m² 0,0 km/h 0 min 0,0 UV-I 0 W/m² 1,2 °C 100 %
_ Min-Zeit 02:50 14:40 20:00 - 20:00 - - - 02:50 17:20
Minimum _ 1,2 °C 82 % 1012,0 hPa - 0,0 km/h - - - 1,2 °C 91 %
_ Max-Zeit 14:20 11:50 09:00 06:20 16:40 10:20 13:50 10:20 15:20 20:00
Maximum _ 7,5 °C 97 % 1014,3 hPa 0,4 l/m² 6,9 km/h
W-NW
10 min 0,6 UV-I 112 W/m² 7,4 °C 100 %
Durchschnitt _ 3,6 °C 93 % 1013,1 hPa #3,2 l/m² 0,9 km/h #10 min. 0,5 UV-I 19 W/m² 3,6 °C 99 %